sensor_id;sensor_type;location;lat;lon;timestamp;temperature;humidity
32600;DHT22;19277;51.778;7.912;2022-07-01T00:01:53;23.60;75.20
32600;DHT22;19277;51.778;7.912;2022-07-01T00:04:20;23.90;74.50
32600;DHT22;19277;51.778;7.912;2022-07-01T00:06:45;24.10;73.90
32600;DHT22;19277;51.778;7.912;2022-07-01T00:09:11;24.30;73.60
32600;DHT22;19277;51.778;7.912;2022-07-01T00:11:36;24.50;73.30
32600;DHT22;19277;51.778;7.912;2022-07-01T00:14:02;24.70;73.00
32600;DHT22;19277;51.778;7.912;2022-07-01T00:16:28;24.80;72.70
32600;DHT22;19277;51.778;7.912;2022-07-01T00:18:53;24.90;72.40
32600;DHT22;19277;51.778;7.912;2022-07-01T00:21:19;25.00;72.20
32600;DHT22;19277;51.778;7.912;2022-07-01T00:23:44;25.10;72.00
32600;DHT22;19277;51.778;7.912;2022-07-01T00:26:10;25.20;71.80
32600;DHT22;19277;51.778;7.912;2022-07-01T00:28:36;25.30;71.50
32600;DHT22;19277;51.778;7.912;2022-07-01T00:31:02;25.40;71.30
32600;DHT22;19277;51.778;7.912;2022-07-01T00:33:27;25.40;71.10
32600;DHT22;19277;51.778;7.912;2022-07-01T00:35:53;25.50;71.10
32600;DHT22;19277;51.778;7.912;2022-07-01T00:38:20;25.50;71.00
32600;DHT22;19277;51.778;7.912;2022-07-01T00:40:51;25.60;71.00
32600;DHT22;19277;51.778;7.912;2022-07-01T00:43:17;25.70;71.00
32600;DHT22;19277;51.778;7.912;2022-07-01T00:45:47;25.70;71.00
32600;DHT22;19277;51.778;7.912;2022-07-01T00:48:14;25.70;70.90
32600;DHT22;19277;51.778;7.912;2022-07-01T00:50:39;25.80;71.00
32600;DHT22;19277;51.778;7.912;2022-07-01T00:53:05;25.80;70.90
32600;DHT22;19277;51.778;7.912;2022-07-01T00:55:31;25.80;70.80
32600;DHT22;19277;51.778;7.912;2022-07-01T00:57:57;25.90;70.90
32600;DHT22;19277;51.778;7.912;2022-07-01T01:00:23;25.90;70.90
32600;DHT22;19277;51.778;7.912;2022-07-01T01:02:49;26.00;70.90
32600;DHT22;19277;51.778;7.912;2022-07-01T01:05:16;26.00;70.90
32600;DHT22;19277;51.778;7.912;2022-07-01T01:07:47;26.00;70.80
32600;DHT22;19277;51.778;7.912;2022-07-01T01:10:14;26.10;70.80
32600;DHT22;19277;51.778;7.912;2022-07-01T01:12:40;26.10;70.80
32600;DHT22;19277;51.778;7.912;2022-07-01T01:15:06;26.10;70.80
32600;DHT22;19277;51.778;7.912;2022-07-01T01:17:32;26.10;70.70
32600;DHT22;19277;51.778;7.912;2022-07-01T01:19:58;26.20;70.80
32600;DHT22;19277;51.778;7.912;2022-07-01T01:22:24;26.20;70.80
32600;DHT22;19277;51.778;7.912;2022-07-01T01:24:49;26.20;70.70
32600;DHT22;19277;51.778;7.912;2022-07-01T01:27:15;26.20;70.70
32600;DHT22;19277;51.778;7.912;2022-07-01T01:29:44;26.20;70.70
32600;DHT22;19277;51.778;7.912;2022-07-01T01:32:10;26.30;70.80
32600;DHT22;19277;51.778;7.912;2022-07-01T01:34:37;26.30;70.90
32600;DHT22;19277;51.778;7.912;2022-07-01T01:37:04;26.30;70.90
32600;DHT22;19277;51.778;7.912;2022-07-01T01:39:30;26.30;70.90
32600;DHT22;19277;51.778;7.912;2022-07-01T01:41:56;26.30;70.80
32600;DHT22;19277;51.778;7.912;2022-07-01T01:44:22;26.40;71.00
32600;DHT22;19277;51.778;7.912;2022-07-01T01:46:47;26.40;71.10
32600;DHT22;19277;51.778;7.912;2022-07-01T01:49:13;26.40;71.20
32600;DHT22;19277;51.778;7.912;2022-07-01T01:51:39;26.40;71.10
32600;DHT22;19277;51.778;7.912;2022-07-01T01:54:05;26.40;71.10
32600;DHT22;19277;51.778;7.912;2022-07-01T01:56:31;26.40;71.20
32600;DHT22;19277;51.778;7.912;2022-07-01T01:58:58;26.40;71.30
32600;DHT22;19277;51.778;7.912;2022-07-01T02:01:23;26.40;71.40
32600;DHT22;19277;51.778;7.912;2022-07-01T02:03:51;26.40;71.50
32600;DHT22;19277;51.778;7.912;2022-07-01T02:06:18;26.40;71.50
32600;DHT22;19277;51.778;7.912;2022-07-01T02:08:44;26.50;71.60
32600;DHT22;19277;51.778;7.912;2022-07-01T02:11:10;26.50;71.60
32600;DHT22;19277;51.778;7.912;2022-07-01T02:13:36;26.50;71.70
32600;DHT22;19277;51.778;7.912;2022-07-01T02:16:02;26.50;71.80
32600;DHT22;19277;51.778;7.912;2022-07-01T02:18:28;26.50;71.90
32600;DHT22;19277;51.778;7.912;2022-07-01T02:20:54;26.50;72.00
32600;DHT22;19277;51.778;7.912;2022-07-01T02:23:20;26.50;72.20
32600;DHT22;19277;51.778;7.912;2022-07-01T02:25:46;26.50;72.70
32600;DHT22;19277;51.778;7.912;2022-07-01T02:28:11;26.50;72.80
32600;DHT22;19277;51.778;7.912;2022-07-01T02:30:37;26.50;72.30
32600;DHT22;19277;51.778;7.912;2022-07-01T02:33:06;26.50;72.50
32600;DHT22;19277;51.778;7.912;2022-07-01T02:35:36;26.60;72.20
32600;DHT22;19277;51.778;7.912;2022-07-01T02:38:03;26.00;64.40
32600;DHT22;19277;51.778;7.912;2022-07-01T02:40:29;24.80;66.10
32600;DHT22;19277;51.778;7.912;2022-07-01T02:42:55;23.90;67.90
32600;DHT22;19277;51.778;7.912;2022-07-01T02:45:21;23.00;70.50
32600;DHT22;19277;51.778;7.912;2022-07-01T02:47:46;22.30;72.70
32600;DHT22;19277;51.778;7.912;2022-07-01T02:50:13;21.70;74.80
32600;DHT22;19277;51.778;7.912;2022-07-01T02:52:41;21.40;75.60
32600;DHT22;19277;51.778;7.912;2022-07-01T02:55:09;21.00;77.10
32600;DHT22;19277;51.778;7.912;2022-07-01T02:57:36;20.70;78.30
32600;DHT22;19277;51.778;7.912;2022-07-01T03:00:03;20.50;79.60
32600;DHT22;19277;51.778;7.912;2022-07-01T03:02:31;20.40;80.20
32600;DHT22;19277;51.778;7.912;2022-07-01T03:04:58;20.20;81.00
32600;DHT22;19277;51.778;7.912;2022-07-01T03:07:23;20.10;81.40
32600;DHT22;19277;51.778;7.912;2022-07-01T03:09:49;20.00;81.60
32600;DHT22;19277;51.778;7.912;2022-07-01T03:12:15;19.90;82.50
32600;DHT22;19277;51.778;7.912;2022-07-01T03:14:58;19.90;82.80
32600;DHT22;19277;51.778;7.912;2022-07-01T03:17:29;19.80;82.90
32600;DHT22;19277;51.778;7.912;2022-07-01T03:19:55;19.90;82.90
32600;DHT22;19277;51.778;7.912;2022-07-01T03:22:23;19.90;82.80
32600;DHT22;19277;51.778;7.912;2022-07-01T03:24:49;19.80;83.20
32600;DHT22;19277;51.778;7.912;2022-07-01T03:27:16;19.90;85.10
32600;DHT22;19277;51.778;7.912;2022-07-01T03:29:42;20.30;85.10
32600;DHT22;19277;51.778;7.912;2022-07-01T03:32:08;20.80;84.00
32600;DHT22;19277;51.778;7.912;2022-07-01T03:34:42;21.40;82.60
32600;DHT22;19277;51.778;7.912;2022-07-01T03:37:10;21.90;81.10
32600;DHT22;19277;51.778;7.912;2022-07-01T03:39:36;22.30;79.70
32600;DHT22;19277;51.778;7.912;2022-07-01T03:42:03;22.70;78.50
32600;DHT22;19277;51.778;7.912;2022-07-01T03:44:29;23.10;77.30
32600;DHT22;19277;51.778;7.912;2022-07-01T03:46:55;23.30;76.30
32600;DHT22;19277;51.778;7.912;2022-07-01T03:49:21;23.60;75.80
32600;DHT22;19277;51.778;7.912;2022-07-01T03:51:46;23.80;75.20
32600;DHT22;19277;51.778;7.912;2022-07-01T03:54:12;24.00;74.80
32600;DHT22;19277;51.778;7.912;2022-07-01T03:57:06;24.10;74.50
32600;DHT22;19277;51.778;7.912;2022-07-01T03:59:35;24.30;74.20
32600;DHT22;19277;51.778;7.912;2022-07-01T04:02:02;24.40;74.00
32600;DHT22;19277;51.778;7.912;2022-07-01T04:04:28;24.50;73.90
32600;DHT22;19277;51.778;7.912;2022-07-01T04:06:56;24.70;73.80
32600;DHT22;19277;51.778;7.912;2022-07-01T04:09:24;24.80;73.70
32600;DHT22;19277;51.778;7.912;2022-07-01T04:11:50;24.90;73.50
32600;DHT22;19277;51.778;7.912;2022-07-01T04:14:16;24.90;73.30
32600;DHT22;19277;51.778;7.912;2022-07-01T04:16:43;25.00;73.20
32600;DHT22;19277;51.778;7.912;2022-07-01T04:19:09;25.10;73.30
32600;DHT22;19277;51.778;7.912;2022-07-01T04:21:36;25.10;73.30
32600;DHT22;19277;51.778;7.912;2022-07-01T04:24:20;25.20;73.20
32600;DHT22;19277;51.778;7.912;2022-07-01T04:26:48;25.20;73.30
32600;DHT22;19277;51.778;7.912;2022-07-01T04:29:14;25.30;73.40
32600;DHT22;19277;51.778;7.912;2022-07-01T04:31:40;25.30;73.40
32600;DHT22;19277;51.778;7.912;2022-07-01T04:34:06;25.40;73.50
32600;DHT22;19277;51.778;7.912;2022-07-01T04:36:32;25.40;73.50
32600;DHT22;19277;51.778;7.912;2022-07-01T04:38:58;25.50;73.60
32600;DHT22;19277;51.778;7.912;2022-07-01T04:41:24;25.50;73.50
32600;DHT22;19277;51.778;7.912;2022-07-01T04:44:08;25.50;73.50
32600;DHT22;19277;51.778;7.912;2022-07-01T04:46:35;25.60;73.50
32600;DHT22;19277;51.778;7.912;2022-07-01T04:49:00;25.60;73.40
32600;DHT22;19277;51.778;7.912;2022-07-01T04:51:26;25.60;73.30
32600;DHT22;19277;51.778;7.912;2022-07-01T04:53:52;25.60;73.20
32600;DHT22;19277;51.778;7.912;2022-07-01T04:56:18;25.70;73.20
32600;DHT22;19277;51.778;7.912;2022-07-01T04:58:43;25.60;73.10
32600;DHT22;19277;51.778;7.912;2022-07-01T05:01:09;25.70;73.10
32600;DHT22;19277;51.778;7.912;2022-07-01T05:03:35;25.70;73.30
32600;DHT22;19277;51.778;7.912;2022-07-01T05:06:00;25.70;73.20
32600;DHT22;19277;51.778;7.912;2022-07-01T05:08:26;25.70;73.10
32600;DHT22;19277;51.778;7.912;2022-07-01T05:10:52;25.80;73.10
32600;DHT22;19277;51.778;7.912;2022-07-01T05:13:17;25.80;72.90
32600;DHT22;19277;51.778;7.912;2022-07-01T05:15:43;25.80;72.80
32600;DHT22;19277;51.778;7.912;2022-07-01T05:18:09;25.90;72.80
32600;DHT22;19277;51.778;7.912;2022-07-01T05:20:53;25.90;72.70
32600;DHT22;19277;51.778;7.912;2022-07-01T05:23:37;25.90;72.70
32600;DHT22;19277;51.778;7.912;2022-07-01T05:26:03;25.90;72.60
32600;DHT22;19277;51.778;7.912;2022-07-01T05:28:29;25.90;72.50
32600;DHT22;19277;51.778;7.912;2022-07-01T05:30:54;25.90;72.50
32600;DHT22;19277;51.778;7.912;2022-07-01T05:33:20;26.00;72.50
32600;DHT22;19277;51.778;7.912;2022-07-01T05:35:47;26.00;72.40
32600;DHT22;19277;51.778;7.912;2022-07-01T05:38:13;26.00;72.40
32600;DHT22;19277;51.778;7.912;2022-07-01T05:40:39;26.00;72.40
32600;DHT22;19277;51.778;7.912;2022-07-01T05:43:05;26.00;72.30
32600;DHT22;19277;51.778;7.912;2022-07-01T05:45:30;26.00;72.30
32600;DHT22;19277;51.778;7.912;2022-07-01T05:47:56;26.00;72.30
32600;DHT22;19277;51.778;7.912;2022-07-01T05:50:22;26.10;72.30
32600;DHT22;19277;51.778;7.912;2022-07-01T05:52:48;26.00;72.10
32600;DHT22;19277;51.778;7.912;2022-07-01T05:55:14;26.10;72.10
32600;DHT22;19277;51.778;7.912;2022-07-01T05:57:39;26.10;72.00
32600;DHT22;19277;51.778;7.912;2022-07-01T06:00:06;26.10;72.00
32600;DHT22;19277;51.778;7.912;2022-07-01T06:02:31;26.10;71.90
32600;DHT22;19277;51.778;7.912;2022-07-01T06:04:57;26.20;71.90
32600;DHT22;19277;51.778;7.912;2022-07-01T06:07:24;26.20;71.80
32600;DHT22;19277;51.778;7.912;2022-07-01T06:09:50;26.20;71.70
32600;DHT22;19277;51.778;7.912;2022-07-01T06:12:16;26.20;71.60
32600;DHT22;19277;51.778;7.912;2022-07-01T06:14:41;26.20;71.60
32600;DHT22;19277;51.778;7.912;2022-07-01T06:17:07;26.20;71.50
32600;DHT22;19277;51.778;7.912;2022-07-01T06:19:35;26.20;71.50
32600;DHT22;19277;51.778;7.912;2022-07-01T06:22:00;26.00;64.00
32600;DHT22;19277;51.778;7.912;2022-07-01T06:24:26;25.00;66.00
32600;DHT22;19277;51.778;7.912;2022-07-01T06:26:52;24.10;68.40
32600;DHT22;19277;51.778;7.912;2022-07-01T06:29:17;23.30;70.90
32600;DHT22;19277;51.778;7.912;2022-07-01T06:31:43;22.70;72.60
32600;DHT22;19277;51.778;7.912;2022-07-01T06:34:09;22.20;73.90
32600;DHT22;19277;51.778;7.912;2022-07-01T06:36:34;22.00;74.40
32600;DHT22;19277;51.778;7.912;2022-07-01T06:39:00;21.70;75.10
32600;DHT22;19277;51.778;7.912;2022-07-01T06:41:26;21.40;75.80
32600;DHT22;19277;51.778;7.912;2022-07-01T06:43:52;21.20;76.20
32600;DHT22;19277;51.778;7.912;2022-07-01T06:46:19;21.10;77.20
32600;DHT22;19277;51.778;7.912;2022-07-01T06:48:44;20.90;77.30
32600;DHT22;19277;51.778;7.912;2022-07-01T06:51:10;20.70;78.40
32600;DHT22;19277;51.778;7.912;2022-07-01T06:53:36;20.50;79.30
32600;DHT22;19277;51.778;7.912;2022-07-01T06:56:01;20.40;79.30
32600;DHT22;19277;51.778;7.912;2022-07-01T06:58:27;20.20;79.20
32600;DHT22;19277;51.778;7.912;2022-07-01T07:00:53;20.10;79.50
32600;DHT22;19277;51.778;7.912;2022-07-01T07:03:18;20.00;80.10
32600;DHT22;19277;51.778;7.912;2022-07-01T07:05:44;19.90;79.40
32600;DHT22;19277;51.778;7.912;2022-07-01T07:08:09;19.90;79.10
32600;DHT22;19277;51.778;7.912;2022-07-01T07:10:35;19.90;79.00
32600;DHT22;19277;51.778;7.912;2022-07-01T07:13:01;19.90;79.00
32600;DHT22;19277;51.778;7.912;2022-07-01T07:15:26;19.90;79.30
32600;DHT22;19277;51.778;7.912;2022-07-01T07:17:53;20.00;81.30
32600;DHT22;19277;51.778;7.912;2022-07-01T07:20:23;20.30;81.80
32600;DHT22;19277;51.778;7.912;2022-07-01T07:22:48;20.80;81.20
32600;DHT22;19277;51.778;7.912;2022-07-01T07:25:14;21.30;80.20
32600;DHT22;19277;51.778;7.912;2022-07-01T07:27:40;21.70;79.00
32600;DHT22;19277;51.778;7.912;2022-07-01T07:30:05;22.20;78.20
32600;DHT22;19277;51.778;7.912;2022-07-01T07:32:31;22.10;73.50
32600;DHT22;19277;51.778;7.912;2022-07-01T07:34:57;22.10;76.60
32600;DHT22;19277;51.778;7.912;2022-07-01T07:37:22;22.30;77.00
32600;DHT22;19277;51.778;7.912;2022-07-01T07:39:48;22.60;76.90
32600;DHT22;19277;51.778;7.912;2022-07-01T07:42:13;22.90;76.40
32600;DHT22;19277;51.778;7.912;2022-07-01T07:44:39;23.20;75.90
32600;DHT22;19277;51.778;7.912;2022-07-01T07:47:05;23.40;75.30
32600;DHT22;19277;51.778;7.912;2022-07-01T07:49:30;23.70;75.10
32600;DHT22;19277;51.778;7.912;2022-07-01T07:51:56;23.80;74.80
32600;DHT22;19277;51.778;7.912;2022-07-01T07:54:22;24.00;74.60
32600;DHT22;19277;51.778;7.912;2022-07-01T07:56:48;24.20;74.60
32600;DHT22;19277;51.778;7.912;2022-07-01T07:59:13;24.30;74.10
32600;DHT22;19277;51.778;7.912;2022-07-01T08:01:39;24.40;73.70
32600;DHT22;19277;51.778;7.912;2022-07-01T08:04:05;24.50;73.50
32600;DHT22;19277;51.778;7.912;2022-07-01T08:06:30;24.60;73.30
32600;DHT22;19277;51.778;7.912;2022-07-01T08:08:57;24.70;73.20
32600;DHT22;19277;51.778;7.912;2022-07-01T08:11:22;24.80;73.40
32600;DHT22;19277;51.778;7.912;2022-07-01T08:13:48;24.90;73.40
32600;DHT22;19277;51.778;7.912;2022-07-01T08:16:14;24.90;73.10
32600;DHT22;19277;51.778;7.912;2022-07-01T08:18:41;25.00;73.00
32600;DHT22;19277;51.778;7.912;2022-07-01T08:21:06;25.10;72.90
32600;DHT22;19277;51.778;7.912;2022-07-01T08:23:32;25.10;68.80
32600;DHT22;19277;51.778;7.912;2022-07-01T08:25:57;24.50;66.80
32600;DHT22;19277;51.778;7.912;2022-07-01T08:28:23;23.90;67.30
32600;DHT22;19277;51.778;7.912;2022-07-01T08:30:49;23.40;69.10
32600;DHT22;19277;51.778;7.912;2022-07-01T08:33:14;23.00;70.60
32600;DHT22;19277;51.778;7.912;2022-07-01T08:35:40;22.70;70.80
32600;DHT22;19277;51.778;7.912;2022-07-01T08:38:06;22.50;71.50
32600;DHT22;19277;51.778;7.912;2022-07-01T08:40:32;22.30;71.40
32600;DHT22;19277;51.778;7.912;2022-07-01T08:43:00;22.10;70.50
32600;DHT22;19277;51.778;7.912;2022-07-01T08:45:27;22.00;71.20
32600;DHT22;19277;51.778;7.912;2022-07-01T08:47:54;21.90;72.10
32600;DHT22;19277;51.778;7.912;2022-07-01T08:50:44;21.80;72.20
32600;DHT22;19277;51.778;7.912;2022-07-01T08:53:11;21.70;71.70
32600;DHT22;19277;51.778;7.912;2022-07-01T08:55:37;21.60;71.30
32600;DHT22;19277;51.778;7.912;2022-07-01T08:58:24;21.50;72.20
32600;DHT22;19277;51.778;7.912;2022-07-01T09:00:50;21.40;71.70
32600;DHT22;19277;51.778;7.912;2022-07-01T09:03:15;21.30;72.40
32600;DHT22;19277;51.778;7.912;2022-07-01T09:05:51;21.20;72.60
32600;DHT22;19277;51.778;7.912;2022-07-01T09:08:17;21.20;72.70
32600;DHT22;19277;51.778;7.912;2022-07-01T09:10:43;21.10;73.40
32600;DHT22;19277;51.778;7.912;2022-07-01T09:13:11;21.10;73.30
32600;DHT22;19277;51.778;7.912;2022-07-01T09:15:39;21.10;73.60
32600;DHT22;19277;51.778;7.912;2022-07-01T09:18:16;21.20;73.40
32600;DHT22;19277;51.778;7.912;2022-07-01T09:20:44;21.20;73.40
32600;DHT22;19277;51.778;7.912;2022-07-01T09:23:15;21.20;72.90
32600;DHT22;19277;51.778;7.912;2022-07-01T09:25:43;21.30;73.40
32600;DHT22;19277;51.778;7.912;2022-07-01T09:28:21;21.40;72.20
32600;DHT22;19277;51.778;7.912;2022-07-01T09:30:49;21.40;71.80
32600;DHT22;19277;51.778;7.912;2022-07-01T09:33:17;21.50;72.40
32600;DHT22;19277;51.778;7.912;2022-07-01T09:35:44;21.50;71.20
32600;DHT22;19277;51.778;7.912;2022-07-01T09:38:14;21.50;70.90
32600;DHT22;19277;51.778;7.912;2022-07-01T09:40:55;21.50;71.10
32600;DHT22;19277;51.778;7.912;2022-07-01T09:45:52;21.50;71.00
32600;DHT22;19277;51.778;7.912;2022-07-01T09:48:20;21.50;71.70
32600;DHT22;19277;51.778;7.912;2022-07-01T09:50:46;21.50;70.90
32600;DHT22;19277;51.778;7.912;2022-07-01T09:53:12;21.50;70.70
32600;DHT22;19277;51.778;7.912;2022-07-01T09:55:39;21.70;69.70
32600;DHT22;19277;51.778;7.912;2022-07-01T09:58:05;21.70;69.50
32600;DHT22;19277;51.778;7.912;2022-07-01T10:00:31;21.70;69.50
32600;DHT22;19277;51.778;7.912;2022-07-01T10:03:02;21.60;69.50
32600;DHT22;19277;51.778;7.912;2022-07-01T10:05:29;21.60;70.00
32600;DHT22;19277;51.778;7.912;2022-07-01T10:13:41;21.80;72.10
32600;DHT22;19277;51.778;7.912;2022-07-01T10:16:08;22.10;71.80
32600;DHT22;19277;51.778;7.912;2022-07-01T10:18:34;22.40;71.30
32600;DHT22;19277;51.778;7.912;2022-07-01T10:21:00;22.60;70.70
32600;DHT22;19277;51.778;7.912;2022-07-01T10:23:36;22.90;70.20
32600;DHT22;19277;51.778;7.912;2022-07-01T10:26:04;23.20;69.60
32600;DHT22;19277;51.778;7.912;2022-07-01T10:31:08;23.70;68.60
32600;DHT22;19277;51.778;7.912;2022-07-01T10:41:37;24.30;67.20
32600;DHT22;19277;51.778;7.912;2022-07-01T10:46:40;24.50;66.70
32600;DHT22;19277;51.778;7.912;2022-07-01T10:49:07;24.50;66.40
32600;DHT22;19277;51.778;7.912;2022-07-01T10:51:53;24.60;66.30
32600;DHT22;19277;51.778;7.912;2022-07-01T10:59:47;24.90;66.20
32600;DHT22;19277;51.778;7.912;2022-07-01T11:02:36;24.90;66.20
32600;DHT22;19277;51.778;7.912;2022-07-01T11:07:36;24.90;66.90
32600;DHT22;19277;51.778;7.912;2022-07-01T11:10:06;24.90;63.80
32600;DHT22;19277;51.778;7.912;2022-07-01T11:12:32;24.70;62.50
32600;DHT22;19277;51.778;7.912;2022-07-01T11:14:58;24.50;63.30
32600;DHT22;19277;51.778;7.912;2022-07-01T11:17:25;24.20;62.90
32600;DHT22;19277;51.778;7.912;2022-07-01T11:19:53;24.00;64.10
32600;DHT22;19277;51.778;7.912;2022-07-01T11:22:24;23.90;63.80
32600;DHT22;19277;51.778;7.912;2022-07-01T11:24:58;23.80;64.30
32600;DHT22;19277;51.778;7.912;2022-07-01T11:27:24;23.70;63.90
32600;DHT22;19277;51.778;7.912;2022-07-01T11:29:56;23.50;64.40
32600;DHT22;19277;51.778;7.912;2022-07-01T11:32:32;23.50;63.90
32600;DHT22;19277;51.778;7.912;2022-07-01T11:34:59;23.40;65.10
32600;DHT22;19277;51.778;7.912;2022-07-01T11:37:30;23.30;64.40
32600;DHT22;19277;51.778;7.912;2022-07-01T11:40:16;23.30;63.90
32600;DHT22;19277;51.778;7.912;2022-07-01T11:42:43;23.30;63.80
32600;DHT22;19277;51.778;7.912;2022-07-01T11:45:09;23.20;64.40
32600;DHT22;19277;51.778;7.912;2022-07-01T11:47:46;23.10;64.80
32600;DHT22;19277;51.778;7.912;2022-07-01T11:50:12;23.10;64.80
32600;DHT22;19277;51.778;7.912;2022-07-01T11:52:41;23.10;64.80
32600;DHT22;19277;51.778;7.912;2022-07-01T11:55:07;23.10;64.90
32600;DHT22;19277;51.778;7.912;2022-07-01T11:57:33;23.20;64.90
32600;DHT22;19277;51.778;7.912;2022-07-01T12:00:11;23.20;65.00
32600;DHT22;19277;51.778;7.912;2022-07-01T12:02:37;23.30;64.90
32600;DHT22;19277;51.778;7.912;2022-07-01T12:05:05;23.30;65.10
32600;DHT22;19277;51.778;7.912;2022-07-01T12:07:31;23.30;65.00
32600;DHT22;19277;51.778;7.912;2022-07-01T12:09:57;23.40;64.70
32600;DHT22;19277;51.778;7.912;2022-07-01T12:12:23;23.30;65.10
32600;DHT22;19277;51.778;7.912;2022-07-01T12:14:55;23.30;64.80
32600;DHT22;19277;51.778;7.912;2022-07-01T12:17:22;23.30;64.80
32600;DHT22;19277;51.778;7.912;2022-07-01T12:19:49;23.30;65.10
32600;DHT22;19277;51.778;7.912;2022-07-01T12:22:22;23.40;63.60
32600;DHT22;19277;51.778;7.912;2022-07-01T12:25:12;23.50;64.00
32600;DHT22;19277;51.778;7.912;2022-07-01T12:27:39;23.60;62.90
32600;DHT22;19277;51.778;7.912;2022-07-01T12:30:11;23.60;63.00
32600;DHT22;19277;51.778;7.912;2022-07-01T12:32:47;23.70;63.50
32600;DHT22;19277;51.778;7.912;2022-07-01T12:35:23;23.60;63.20
32600;DHT22;19277;51.778;7.912;2022-07-01T12:38:02;23.50;63.30
32600;DHT22;19277;51.778;7.912;2022-07-01T12:40:31;23.50;63.00
32600;DHT22;19277;51.778;7.912;2022-07-01T12:42:57;23.40;63.30
32600;DHT22;19277;51.778;7.912;2022-07-01T12:45:26;23.40;63.00
32600;DHT22;19277;51.778;7.912;2022-07-01T12:47:58;23.40;62.60
32600;DHT22;19277;51.778;7.912;2022-07-01T12:50:28;23.40;61.80
32600;DHT22;19277;51.778;7.912;2022-07-01T12:53:04;23.40;62.70
32600;DHT22;19277;51.778;7.912;2022-07-01T12:55:36;23.40;62.00
32600;DHT22;19277;51.778;7.912;2022-07-01T12:58:04;23.50;61.90
32600;DHT22;19277;51.778;7.912;2022-07-01T13:00:31;23.50;61.60
32600;DHT22;19277;51.778;7.912;2022-07-01T13:02:59;23.50;61.30
32600;DHT22;19277;51.778;7.912;2022-07-01T13:05:26;23.50;60.80
32600;DHT22;19277;51.778;7.912;2022-07-01T13:07:52;23.50;60.00
32600;DHT22;19277;51.778;7.912;2022-07-01T13:10:18;23.50;60.70
32600;DHT22;19277;51.778;7.912;2022-07-01T13:12:45;23.60;59.60
32600;DHT22;19277;51.778;7.912;2022-07-01T13:15:12;23.70;59.90
32600;DHT22;19277;51.778;7.912;2022-07-01T13:17:38;23.70;59.80
32600;DHT22;19277;51.778;7.912;2022-07-01T13:20:05;23.70;58.80
32600;DHT22;19277;51.778;7.912;2022-07-01T13:22:32;23.70;59.40
32600;DHT22;19277;51.778;7.912;2022-07-01T13:24:58;23.70;58.90
32600;DHT22;19277;51.778;7.912;2022-07-01T13:27:23;23.70;58.90
32600;DHT22;19277;51.778;7.912;2022-07-01T13:29:50;23.70;60.10
32600;DHT22;19277;51.778;7.912;2022-07-01T13:32:15;23.80;61.40
32600;DHT22;19277;51.778;7.912;2022-07-01T13:34:41;23.90;62.00
32600;DHT22;19277;51.778;7.912;2022-07-01T13:37:07;24.10;62.20
32600;DHT22;19277;51.778;7.912;2022-07-01T13:39:33;24.30;62.50
32600;DHT22;19277;51.778;7.912;2022-07-01T13:41:59;24.40;62.50
32600;DHT22;19277;51.778;7.912;2022-07-01T13:44:25;24.60;60.70
32600;DHT22;19277;51.778;7.912;2022-07-01T13:46:50;24.60;59.20
32600;DHT22;19277;51.778;7.912;2022-07-01T13:49:16;24.60;56.40
32600;DHT22;19277;51.778;7.912;2022-07-01T13:51:42;24.50;57.20
32600;DHT22;19277;51.778;7.912;2022-07-01T13:54:08;24.50;57.70
32600;DHT22;19277;51.778;7.912;2022-07-01T13:56:33;24.40;56.50
32600;DHT22;19277;51.778;7.912;2022-07-01T13:58:59;24.30;56.30
32600;DHT22;19277;51.778;7.912;2022-07-01T14:01:26;24.20;56.80
32600;DHT22;19277;51.778;7.912;2022-07-01T14:03:52;24.20;57.10
32600;DHT22;19277;51.778;7.912;2022-07-01T14:06:18;24.10;57.80
32600;DHT22;19277;51.778;7.912;2022-07-01T14:08:45;24.10;57.60
32600;DHT22;19277;51.778;7.912;2022-07-01T14:11:11;24.10;55.40
32600;DHT22;19277;51.778;7.912;2022-07-01T14:13:37;24.00;57.10
32600;DHT22;19277;51.778;7.912;2022-07-01T14:16:04;24.10;57.20
32600;DHT22;19277;51.778;7.912;2022-07-01T14:18:36;24.10;57.70
32600;DHT22;19277;51.778;7.912;2022-07-01T14:21:03;24.10;57.20
32600;DHT22;19277;51.778;7.912;2022-07-01T14:23:30;24.10;56.90
32600;DHT22;19277;51.778;7.912;2022-07-01T14:25:56;24.10;57.60
32600;DHT22;19277;51.778;7.912;2022-07-01T14:28:22;24.10;57.50
32600;DHT22;19277;51.778;7.912;2022-07-01T14:30:48;24.10;58.00
32600;DHT22;19277;51.778;7.912;2022-07-01T14:33:15;24.20;57.60
32600;DHT22;19277;51.778;7.912;2022-07-01T14:35:41;24.30;61.20
32600;DHT22;19277;51.778;7.912;2022-07-01T14:38:07;24.60;61.10
32600;DHT22;19277;51.778;7.912;2022-07-01T14:40:33;24.90;59.90
32600;DHT22;19277;51.778;7.912;2022-07-01T14:43:00;25.30;58.10
32600;DHT22;19277;51.778;7.912;2022-07-01T14:45:27;25.70;57.70
32600;DHT22;19277;51.778;7.912;2022-07-01T14:47:52;25.90;57.20
32600;DHT22;19277;51.778;7.912;2022-07-01T14:50:18;26.00;56.80
32600;DHT22;19277;51.778;7.912;2022-07-01T14:52:44;26.10;56.60
32600;DHT22;19277;51.778;7.912;2022-07-01T14:55:10;26.20;56.00
32600;DHT22;19277;51.778;7.912;2022-07-01T14:57:36;26.20;55.80
32600;DHT22;19277;51.778;7.912;2022-07-01T15:00:04;26.30;55.90
32600;DHT22;19277;51.778;7.912;2022-07-01T15:02:30;26.40;56.10
32600;DHT22;19277;51.778;7.912;2022-07-01T15:04:57;26.50;56.00
32600;DHT22;19277;51.778;7.912;2022-07-01T15:07:23;26.60;55.80
32600;DHT22;19277;51.778;7.912;2022-07-01T15:09:50;26.80;55.50
32600;DHT22;19277;51.778;7.912;2022-07-01T15:12:16;26.90;55.30
32600;DHT22;19277;51.778;7.912;2022-07-01T15:14:42;27.00;54.90
32600;DHT22;19277;51.778;7.912;2022-07-01T15:17:08;26.90;53.80
32600;DHT22;19277;51.778;7.912;2022-07-01T15:19:33;26.90;55.20
32600;DHT22;19277;51.778;7.912;2022-07-01T15:21:59;27.00;54.70
32600;DHT22;19277;51.778;7.912;2022-07-01T15:24:24;27.00;51.70
32600;DHT22;19277;51.778;7.912;2022-07-01T15:26:52;26.80;53.10
32600;DHT22;19277;51.778;7.912;2022-07-01T15:29:17;26.70;54.30
32600;DHT22;19277;51.778;7.912;2022-07-01T15:31:43;26.60;54.50
32600;DHT22;19277;51.778;7.912;2022-07-01T15:34:09;26.70;54.60
32600;DHT22;19277;51.778;7.912;2022-07-01T15:36:36;26.80;54.70
32600;DHT22;19277;51.778;7.912;2022-07-01T15:39:03;26.90;54.30
32600;DHT22;19277;51.778;7.912;2022-07-01T15:41:32;26.90;54.10
32600;DHT22;19277;51.778;7.912;2022-07-01T15:43:57;27.00;54.10
32600;DHT22;19277;51.778;7.912;2022-07-01T15:46:24;27.00;53.90
32600;DHT22;19277;51.778;7.912;2022-07-01T15:48:49;27.00;54.60
32600;DHT22;19277;51.778;7.912;2022-07-01T15:51:15;27.10;53.90
32600;DHT22;19277;51.778;7.912;2022-07-01T15:53:41;27.20;53.50
32600;DHT22;19277;51.778;7.912;2022-07-01T15:56:06;27.10;52.80
32600;DHT22;19277;51.778;7.912;2022-07-01T15:58:32;27.10;53.10
32600;DHT22;19277;51.778;7.912;2022-07-01T16:00:59;27.10;53.30